Time;durP1;ratioP1;P1;durP2;ratioP2;P2;SDS_P1;SDS_P2;PMS_P1;PMS_P2;Temp;Humidity;BMP_temperature;BMP_pressure;BME280_temperature;BME280_humidity;BME280_pressure;Samples;Min_cycle;Max_cycle;Signal;HPM_P1;HPM_P2
2022/02/22 00:00:09;;;;;;;41.70;5.60;;;6.00;99.90;;;;;;6160335;23;20020;-85
2022/02/22 00:02:36;;;;;;;55.78;7.07;;;5.70;99.90;;;;;;6185967;23;20720;-84
2022/02/22 00:05:02;;;;;;;44.10;6.40;;;5.70;99.90;;;;;;6186529;23;20027;-84
2022/02/22 00:07:29;;;;;;;41.42;5.35;;;5.60;99.90;;;;;;6186557;23;20023;-85
2022/02/22 00:09:55;;;;;;;52.55;6.57;;;5.70;99.90;;;;;;6160036;23;20012;-83
2022/02/22 00:12:22;;;;;;;33.45;5.35;;;5.60;99.90;;;;;;6159836;23;20023;-84
2022/02/22 00:14:48;;;;;;;37.75;5.05;;;6.10;99.90;;;;;;6185557;23;20074;-84
2022/02/22 00:17:14;;;;;;;37.08;6.90;;;5.60;99.90;;;;;;6160785;23;20468;-84
2022/02/22 00:19:39;;;;;;;40.63;5.78;;;5.50;99.90;;;;;;6186059;23;20012;-85
2022/02/22 00:22:07;;;;;;;45.22;5.72;;;6.40;99.90;;;;;;6186544;23;20095;-85
2022/02/22 00:24:33;;;;;;;30.30;4.88;;;5.60;99.90;;;;;;6184857;23;20016;-84
2022/02/22 00:26:59;;;;;;;37.10;5.35;;;6.20;99.90;;;;;;6160262;23;20016;-84
2022/02/22 00:29:43;;;;;;;40.67;5.63;;;5.60;99.90;;;;;;6186277;23;20016;-84
2022/02/22 00:32:09;;;;;;;55.33;6.65;;;5.50;99.90;;;;;;6163482;23;20027;-84
2022/02/22 00:34:34;;;;;;;40.70;5.60;;;5.50;99.90;;;;;;6161186;23;20337;-85
2022/02/22 00:37:00;;;;;;;37.63;5.57;;;5.50;99.90;;;;;;6186772;23;20028;-84
2022/02/22 00:39:26;;;;;;;40.58;4.22;;;5.50;99.90;;;;;;6211809;23;20044;-84
2022/02/22 00:41:52;;;;;;;25.77;4.28;;;6.20;99.90;;;;;;6187134;23;20036;-85
2022/02/22 00:44:17;;;;;;;45.22;6.00;;;5.60;99.90;;;;;;6187335;23;20058;-84
2022/02/22 00:46:43;;;;;;;46.00;5.65;;;5.50;99.90;;;;;;6160338;23;20017;-84
2022/02/22 00:49:09;;;;;;;28.00;4.35;;;5.50;99.90;;;;;;6186016;23;20024;-84
2022/02/22 00:51:35;;;;;;;32.92;4.80;;;5.50;99.90;;;;;;6160949;23;20460;-84
2022/02/22 00:54:01;;;;;;;30.88;4.97;;;5.60;99.90;;;;;;6191275;23;20016;-85
2022/02/22 00:56:27;;;;;;;39.85;4.82;;;5.60;99.90;;;;;;6159872;23;20044;-84
2022/02/22 00:58:52;;;;;;;30.38;4.13;;;5.50;99.90;;;;;;6160413;23;20394;-83
2022/02/22 01:01:18;;;;;;;27.83;4.95;;;5.80;99.90;;;;;;6159641;23;20412;-84
2022/02/22 01:03:44;;;;;;;27.65;4.57;;;5.50;99.90;;;;;;6186736;23;20023;-84
2022/02/22 01:06:10;;;;;;;29.80;4.32;;;5.90;99.90;;;;;;6159983;23;20023;-84
2022/02/22 01:08:36;;;;;;;39.55;5.93;;;6.00;99.90;;;;;;6159269;23;20020;-84
2022/02/22 01:11:02;;;;;;;45.00;5.10;;;5.50;99.90;;;;;;6160530;23;20028;-84
2022/02/22 01:13:28;;;;;;;40.40;5.43;;;5.40;99.90;;;;;;6160389;23;20445;-85
2022/02/22 01:15:54;;;;;;;34.88;5.13;;;5.40;99.90;;;;;;6185287;23;20087;-85
2022/02/22 01:18:22;;;;;;;32.80;5.13;;;5.20;99.90;;;;;;6159619;23;20017;-83
2022/02/22 01:20:48;;;;;;;38.38;4.90;;;5.10;99.90;;;;;;6184946;23;20035;-84
2022/02/22 01:23:14;;;;;;;35.45;5.13;;;5.00;99.90;;;;;;6159448;23;20040;-84
2022/02/22 01:25:40;;;;;;;39.15;4.63;;;5.00;99.90;;;;;;6160134;23;20337;-84
2022/02/22 01:28:07;;;;;;;46.50;6.45;;;4.90;99.90;;;;;;6160102;23;20032;-84
2022/02/22 01:30:33;;;;;;;44.10;5.95;;;5.20;99.90;;;;;;6159511;23;20016;-83
2022/02/22 01:32:59;;;;;;;42.38;5.30;;;4.80;99.90;;;;;;6159226;23;20016;-84
2022/02/22 01:35:24;;;;;;;48.83;5.90;;;5.40;99.90;;;;;;6185577;23;20023;-85
2022/02/22 01:37:53;;;;;;;34.67;5.55;;;4.70;99.90;;;;;;6184472;23;20052;-84
2022/02/22 01:40:20;;;;;;;40.40;5.57;;;4.70;99.90;;;;;;6158191;23;20012;-85
2022/02/22 01:42:46;;;;;;;43.40;5.78;;;4.80;99.90;;;;;;6184855;23;20020;-82
2022/02/22 01:45:12;;;;;;;43.17;5.38;;;4.80;99.90;;;;;;6185174;23;20080;-84
2022/02/22 01:47:38;;;;;;;37.25;4.97;;;4.80;99.90;;;;;;6184741;23;20091;-84
2022/02/22 01:50:05;;;;;;;43.22;5.10;;;4.80;99.90;;;;;;6185002;23;20038;-84
2022/02/22 01:52:31;;;;;;;43.58;5.53;;;4.90;99.90;;;;;;6183897;23;20107;-84
2022/02/22 01:54:57;;;;;;;34.38;4.32;;;4.80;99.90;;;;;;6184922;23;20048;-84
2022/02/22 01:57:24;;;;;;;53.03;6.30;;;4.80;99.90;;;;;;6158361;23;20044;-84
2022/02/22 02:00:46;;;;;;;48.88;5.38;;;4.70;99.90;;;;;;6186439;23;20021;-84
2022/02/22 02:03:14;;;;;;;39.25;4.55;;;4.60;99.90;;;;;;6184999;23;20050;-83
2022/02/22 02:05:39;;;;;;;31.60;5.03;;;4.60;99.90;;;;;;6184108;23;20016;-83
2022/02/22 02:08:05;;;;;;;37.42;5.03;;;4.50;99.90;;;;;;6185892;23;20019;-83
2022/02/22 02:10:31;;;;;;;34.85;5.13;;;4.60;99.90;;;;;;6159716;23;20108;-84
2022/02/22 02:12:57;;;;;;;48.15;6.55;;;4.50;99.90;;;;;;6185001;23;20614;-84
2022/02/22 02:15:22;;;;;;;45.10;6.05;;;4.50;99.90;;;;;;6184522;23;20071;-84
2022/02/22 02:17:48;;;;;;;47.13;5.43;;;4.50;99.90;;;;;;6184877;23;20059;-84
2022/02/22 02:20:14;;;;;;;40.97;4.93;;;4.50;99.90;;;;;;6185466;23;20021;-84
2022/02/22 02:22:40;;;;;;;38.50;5.03;;;4.50;99.90;;;;;;6159413;23;20020;-84
2022/02/22 02:25:10;;;;;;;44.92;5.53;;;4.50;99.90;;;;;;6159710;23;20121;-84
2022/02/22 02:27:36;;;;;;;40.42;5.10;;;4.30;99.90;;;;;;6159591;23;20091;-84
2022/02/22 02:30:04;;;;;;;52.65;5.90;;;4.40;99.90;;;;;;6135448;23;20860;-84
2022/02/22 02:32:30;;;;;;;36.65;5.57;;;4.40;99.90;;;;;;6184577;23;20094;-84
2022/02/22 02:34:56;;;;;;;37.13;4.70;;;4.30;99.90;;;;;;6159183;23;20048;-82
2022/02/22 02:37:22;;;;;;;40.08;5.07;;;4.30;99.90;;;;;;6159335;23;20021;-84
2022/02/22 02:39:48;;;;;;;49.65;5.93;;;5.00;99.90;;;;;;6184161;23;20381;-83
2022/02/22 02:42:16;;;;;;;34.60;5.32;;;4.40;99.90;;;;;;6159327;23;20009;-82
2022/02/22 02:44:44;;;;;;;47.70;4.95;;;4.40;99.90;;;;;;6161043;23;20013;-84
2022/02/22 02:47:10;;;;;;;40.50;5.70;;;4.50;99.90;;;;;;6184525;23;20108;-83
2022/02/22 02:49:35;;;;;;;42.67;5.60;;;4.50;99.90;;;;;;6183880;23;20091;-83
2022/02/22 02:52:01;;;;;;;43.17;5.68;;;4.40;99.90;;;;;;6184514;23;20503;-84
2022/02/22 02:54:27;;;;;;;47.72;6.30;;;4.40;99.90;;;;;;6183818;23;20079;-84
2022/02/22 02:56:53;;;;;;;32.90;5.05;;;4.40;99.90;;;;;;6159840;23;20024;-84
2022/02/22 02:59:18;;;;;;;46.72;6.40;;;4.50;99.90;;;;;;6161568;23;20069;-83
2022/02/22 03:01:44;;;;;;;48.67;6.70;;;4.40;99.90;;;;;;6160965;23;20024;-84
2022/02/22 03:04:11;;;;;;;44.55;5.95;;;4.50;99.90;;;;;;6162194;23;20055;-83
2022/02/22 03:06:37;;;;;;;33.88;4.88;;;5.00;99.90;;;;;;6162502;23;20015;-83
2022/02/22 03:09:04;;;;;;;44.03;5.63;;;4.40;99.90;;;;;;6187479;23;20005;-83
2022/02/22 03:11:30;;;;;;;57.72;5.90;;;4.30;99.90;;;;;;6186494;23;20009;-84
2022/02/22 03:13:56;;;;;;;45.70;5.93;;;4.30;99.90;;;;;;6213764;23;20024;-83
2022/02/22 03:16:22;;;;;;;40.33;4.70;;;4.30;99.90;;;;;;6186376;23;20281;-84
2022/02/22 03:18:48;;;;;;;36.53;5.38;;;4.50;99.90;;;;;;6213453;23;20009;-84
2022/02/22 03:21:14;;;;;;;43.67;5.97;;;4.70;99.90;;;;;;6186181;23;20366;-83
2022/02/22 03:23:40;;;;;;;34.63;4.75;;;4.70;99.90;;;;;;6186235;23;20110;-83
2022/02/22 03:26:07;;;;;;;40.22;4.72;;;4.10;99.90;;;;;;6184526;23;20008;-83
2022/02/22 03:28:33;;;;;;;46.85;4.72;;;4.10;99.90;;;;;;6161528;23;20110;-83
2022/02/22 03:31:00;;;;;;;37.00;5.38;;;4.10;99.90;;;;;;6185402;23;20020;-85
2022/02/22 03:33:26;;;;;;;42.65;4.93;;;4.10;99.90;;;;;;6161385;23;20021;-84
2022/02/22 03:35:52;;;;;;;38.83;5.35;;;4.10;99.90;;;;;;6161996;23;20021;-84
2022/02/22 03:38:18;;;;;;;42.45;5.03;;;4.10;99.90;;;;;;6163224;23;20017;-83
2022/02/22 03:40:45;;;;;;;40.45;4.85;;;4.20;99.90;;;;;;6160804;23;20013;-83
2022/02/22 03:43:11;;;;;;;36.95;4.90;;;4.00;99.90;;;;;;6186388;23;20082;-84
2022/02/22 03:45:37;;;;;;;36.30;5.40;;;4.80;99.90;;;;;;6213380;23;20040;-83
2022/02/22 03:48:03;;;;;;;45.47;5.95;;;4.90;99.90;;;;;;6162224;23;20344;-82
2022/02/22 03:50:29;;;;;;;45.55;4.53;;;3.90;99.90;;;;;;6186521;23;20317;-83
2022/02/22 03:52:56;;;;;;;47.95;4.93;;;3.90;99.90;;;;;;6186615;23;20020;-84
2022/02/22 03:55:22;;;;;;;37.90;4.43;;;4.00;99.90;;;;;;6183570;23;20736;-82
2022/02/22 03:57:48;;;;;;;39.58;4.68;;;4.40;99.90;;;;;;6186226;23;20016;-84
2022/02/22 04:00:20;;;;;;;42.22;4.85;;;3.80;99.90;;;;;;6162389;23;20012;-83
2022/02/22 04:02:46;;;;;;;34.95;4.10;;;3.80;99.90;;;;;;6162163;23;20012;-84
2022/02/22 04:05:12;;;;;;;32.55;4.40;;;3.80;99.90;;;;;;6162299;23;20054;-83
2022/02/22 04:07:38;;;;;;;30.50;4.50;;;4.20;99.90;;;;;;6187190;23;20043;-84
2022/02/22 04:10:06;;;;;;;33.08;4.85;;;3.80;99.90;;;;;;6161381;23;20095;-84
2022/02/22 04:12:32;;;;;;;40.05;4.85;;;3.70;99.90;;;;;;6160777;23;20030;-83
2022/02/22 04:14:58;;;;;;;31.05;3.97;;;4.00;99.90;;;;;;6184332;23;20432;-83
2022/02/22 04:17:24;;;;;;;36.40;4.68;;;3.60;99.90;;;;;;6160020;23;20078;-83
2022/02/22 04:19:49;;;;;;;34.28;4.55;;;3.70;99.90;;;;;;6160329;23;20009;-84
2022/02/22 04:22:16;;;;;;;38.35;5.18;;;3.60;99.90;;;;;;6185597;23;20047;-83
2022/02/22 04:24:42;;;;;;;38.90;4.95;;;3.60;99.90;;;;;;6183884;23;20024;-83
2022/02/22 04:27:08;;;;;;;40.50;5.28;;;3.60;99.90;;;;;;6184536;23;20012;-83
2022/02/22 04:29:49;;;;;;;46.83;4.32;;;3.70;99.90;;;;;;6186508;23;20035;-83
2022/02/22 04:32:15;;;;;;;40.45;5.40;;;3.80;99.90;;;;;;6184967;23;20017;-83
2022/02/22 04:34:40;;;;;;;43.40;4.88;;;3.70;99.90;;;;;;6185720;23;20031;-83
2022/02/22 04:37:06;;;;;;;39.53;5.40;;;3.80;99.90;;;;;;6185310;23;20013;-83
2022/02/22 04:39:32;;;;;;;38.67;4.63;;;3.90;99.90;;;;;;6159729;23;20596;-82
2022/02/22 04:41:57;;;;;;;33.22;4.22;;;3.90;99.90;;;;;;6185593;23;20043;-82
2022/02/22 04:44:24;;;;;;;45.15;4.97;;;3.90;99.90;;;;;;6162466;23;20023;-83
2022/02/22 04:46:49;;;;;;;47.88;5.93;;;4.00;99.90;;;;;;6211954;23;20016;-83
2022/02/22 04:49:15;;;;;;;36.38;5.20;;;3.90;99.90;;;;;;6158143;23;20445;-82
2022/02/22 04:51:42;;;;;;;44.35;4.88;;;3.90;99.90;;;;;;6160107;23;20176;-82
2022/02/22 04:54:09;;;;;;;42.83;4.65;;;3.90;99.90;;;;;;6160413;23;20017;-82
2022/02/22 04:56:36;;;;;;;46.95;5.35;;;3.90;99.90;;;;;;6184827;23;20020;-83
2022/02/22 04:59:04;;;;;;;47.53;5.50;;;3.90;99.90;;;;;;6185239;23;20051;-83
2022/02/22 05:01:30;;;;;;;32.70;5.50;;;4.40;99.90;;;;;;6187025;23;20082;-82
2022/02/22 05:03:55;;;;;;;47.00;5.10;;;4.20;99.90;;;;;;6186166;23;20414;-84
2022/02/22 05:06:21;;;;;;;39.00;4.50;;;3.80;99.90;;;;;;6160702;23;20453;-83
2022/02/22 05:08:47;;;;;;;46.28;5.70;;;4.90;99.90;;;;;;6186694;23;20439;-84
2022/02/22 05:11:12;;;;;;;45.75;4.93;;;3.90;99.90;;;;;;6160130;23;20023;-83
2022/02/22 05:13:38;;;;;;;51.83;5.38;;;3.90;99.90;;;;;;6161690;23;20099;-84
2022/02/22 05:16:06;;;;;;;37.33;5.28;;;4.30;99.90;;;;;;6159804;23;20020;-85
2022/02/22 05:18:32;;;;;;;45.03;5.50;;;4.60;99.90;;;;;;6161010;23;20017;-85
2022/02/22 05:20:58;;;;;;;42.90;5.25;;;4.00;99.90;;;;;;6184518;23;20086;-82
2022/02/22 05:23:32;;;;;;;51.28;6.05;;;4.40;99.90;;;;;;6183636;23;20017;-83
2022/02/22 05:25:57;;;;;;;41.28;5.40;;;3.90;99.90;;;;;;6184943;23;20048;-83
2022/02/22 05:28:23;;;;;;;45.17;5.20;;;4.30;99.90;;;;;;6184525;23;20026;-84
2022/02/22 05:30:50;;;;;;;43.67;4.57;;;3.90;99.90;;;;;;6161390;23;20031;-83
2022/02/22 05:33:16;;;;;;;46.08;5.20;;;3.90;99.90;;;;;;6186486;23;20017;-83
2022/02/22 05:35:51;;;;;;;46.15;4.80;;;3.90;99.90;;;;;;6160867;23;20016;-83
2022/02/22 05:38:18;;;;;;;50.40;6.05;;;3.90;99.90;;;;;;6185203;23;20043;-83
2022/02/22 05:40:44;;;;;;;53.78;5.15;;;4.40;99.90;;;;;;6160426;23;20448;-82
2022/02/22 05:43:10;;;;;;;39.47;6.20;;;4.10;99.90;;;;;;6186042;23;20008;-83
2022/02/22 05:45:36;;;;;;;39.72;4.82;;;4.30;99.90;;;;;;6188366;23;20060;-81
2022/02/22 05:48:04;;;;;;;43.05;5.50;;;3.90;99.90;;;;;;6187092;23;20020;-83
2022/02/22 05:50:30;;;;;;;43.83;5.13;;;4.00;99.90;;;;;;6184351;23;20635;-84
2022/02/22 05:52:57;;;;;;;44.20;5.13;;;4.90;99.90;;;;;;6160747;23;20017;-83
2022/02/22 05:55:26;;;;;;;32.25;4.55;;;4.00;99.90;;;;;;6184807;23;20059;-83
2022/02/22 05:57:51;;;;;;;39.28;4.97;;;4.00;99.90;;;;;;6184991;23;20425;-83
2022/02/22 06:00:18;;;;;;;38.47;5.05;;;3.90;99.90;;;;;;6183932;23;20013;-84
2022/02/22 06:02:44;;;;;;;42.08;5.05;;;4.00;99.90;;;;;;6161199;23;20013;-82
2022/02/22 06:05:09;;;;;;;46.80;5.22;;;4.00;99.90;;;;;;6161401;23;20031;-84
2022/02/22 06:07:35;;;;;;;45.60;5.75;;;3.90;99.90;;;;;;6188090;23;20017;-81
2022/02/22 06:10:01;;;;;;;41.15;4.88;;;4.20;99.90;;;;;;6163022;23;20028;-84
2022/02/22 06:12:27;;;;;;;36.17;4.32;;;3.80;99.90;;;;;;6157946;23;20016;-84
2022/02/22 06:14:53;;;;;;;36.90;5.47;;;3.80;99.90;;;;;;6160335;23;20307;-86
2022/02/22 06:17:21;;;;;;;55.67;5.45;;;3.60;99.90;;;;;;6184449;23;20059;-85
2022/02/22 06:19:47;;;;;;;39.75;5.38;;;3.60;99.90;;;;;;6160590;23;20436;-84
2022/02/22 06:22:14;;;;;;;45.53;5.60;;;3.60;99.90;;;;;;6183391;23;20039;-84
2022/02/22 06:24:40;;;;;;;44.83;5.13;;;3.60;99.90;;;;;;6160033;23;20357;-83
2022/02/22 06:27:06;;;;;;;46.28;6.20;;;3.50;99.90;;;;;;6183005;23;20122;-83
2022/02/22 06:29:32;;;;;;;43.72;4.97;;;3.50;99.90;;;;;;6185088;23;20476;-84
2022/02/22 06:31:58;;;;;;;44.30;5.28;;;4.20;99.90;;;;;;6159256;23;20012;-84
2022/02/22 06:34:24;;;;;;;41.45;5.28;;;4.30;99.90;;;;;;6160176;23;20024;-83
2022/02/22 06:36:50;;;;;;;46.22;5.88;;;4.20;99.90;;;;;;6212317;23;20019;-83
2022/02/22 06:39:15;;;;;;;46.95;5.22;;;3.60;99.90;;;;;;6185677;23;20023;-83
2022/02/22 06:41:46;;;;;;;44.58;5.05;;;3.50;99.90;;;;;;6211440;23;20481;-82
2022/02/22 06:44:18;;;;;;;42.05;4.57;;;3.50;99.90;;;;;;6160356;23;20380;-83
2022/02/22 06:46:47;;;;;;;30.65;4.63;;;3.50;99.90;;;;;;6182925;23;20016;-86
2022/02/22 06:49:21;;;;;;;42.92;5.15;;;4.80;99.90;;;;;;6172655;23;20123;-82
2022/02/22 06:52:46;;;;;;;49.15;5.32;;;4.60;99.90;;;;;;6135641;23;20097;-82
2022/02/22 06:55:14;;;;;;;38.08;5.95;;;4.80;99.90;;;;;;6070589;23;20022;-80
2022/02/22 06:58:18;;;;;;;53.15;5.68;;;4.00;99.90;;;;;;6094259;23;20126;-83
2022/02/22 07:00:45;;;;;;;49.72;5.78;;;3.80;99.90;;;;;;6009218;23;20015;-80
2022/02/22 07:03:11;;;;;;;37.33;4.90;;;3.70;99.90;;;;;;6032683;23;20030;-81
2022/02/22 07:05:37;;;;;;;47.40;5.60;;;3.60;99.90;;;;;;6008495;23;20015;-81
2022/02/22 07:08:23;;;;;;;53.25;5.82;;;3.50;99.90;;;;;;6009689;23;20025;-83
2022/02/22 07:10:52;;;;;;;43.45;5.85;;;3.50;99.90;;;;;;6032465;23;20115;-81
2022/02/22 07:13:34;;;;;;;51.95;6.53;;;4.40;99.90;;;;;;6010863;23;20114;-82
2022/02/22 07:15:59;;;;;;;40.70;5.57;;;2.50;99.90;;;;;;6033609;23;20030;-81
2022/02/22 07:18:27;;;;;;;45.67;4.88;;;3.50;99.90;;;;;;6033215;23;20393;-81
2022/02/22 07:20:53;;;;;;;45.28;5.88;;;3.40;99.90;;;;;;6054785;23;20022;-80
2022/02/22 07:23:19;;;;;;;42.92;5.53;;;4.30;99.90;;;;;;6038896;23;20014;-81
2022/02/22 07:25:45;;;;;;;49.03;5.93;;;4.40;99.90;;;;;;6050250;23;20018;-83
2022/02/22 07:28:11;;;;;;;47.85;5.63;;;3.60;99.90;;;;;;6067802;23;20030;-84
2022/02/22 07:30:37;;;;;;;51.85;5.63;;;3.90;99.90;;;;;;6042737;23;20025;-80
2022/02/22 07:33:03;;;;;;;40.75;5.05;;;3.70;99.90;;;;;;6067329;23;20018;-81
2022/02/22 07:35:30;;;;;;;40.13;5.22;;;3.70;99.90;;;;;;6042691;23;20022;-83
2022/02/22 07:37:56;;;;;;;43.65;5.22;;;3.70;99.90;;;;;;6087581;23;20017;-82
2022/02/22 07:40:23;;;;;;;49.05;6.05;;;3.70;99.90;;;;;;6100887;23;20844;-82
2022/02/22 07:42:50;;;;;;;52.35;5.60;;;3.80;99.90;;;;;;6100721;23;20021;-80
2022/02/22 07:45:34;;;;;;;53.92;5.40;;;3.70;99.90;;;;;;6126796;23;20013;-80
2022/02/22 07:48:03;;;;;;;49.80;5.78;;;3.80;99.90;;;;;;6101327;23;20053;-81
2022/02/22 07:50:40;;;;;;;44.67;5.53;;;4.50;99.90;;;;;;6151474;23;20117;-81
2022/02/22 07:53:06;;;;;;;52.20;5.95;;;4.70;99.90;;;;;;6126838;23;20021;-79
2022/02/22 07:55:32;;;;;;;42.17;4.80;;;3.90;99.90;;;;;;6125732;23;20033;-80
2022/02/22 07:57:58;;;;;;;56.45;5.88;;;3.90;99.90;;;;;;6102385;23;20017;-80
2022/02/22 08:00:26;;;;;;;42.00;5.28;;;4.30;99.90;;;;;;6125770;23;20022;-80
2022/02/22 08:02:54;;;;;;;62.30;6.07;;;4.10;99.90;;;;;;6102544;23;20013;-80
2022/02/22 08:05:25;;;;;;;43.58;4.93;;;4.10;99.90;;;;;;6127884;23;20417;-82
2022/02/22 08:07:54;;;;;;;43.53;5.43;;;4.80;99.90;;;;;;6131984;23;20017;-84
2022/02/22 08:10:23;;;;;;;47.13;5.28;;;4.30;99.90;;;;;;6189330;23;20322;-83
2022/02/22 08:16:44;;;;;;;40.53;4.80;;;4.40;99.90;;;;;;6192756;23;20017;-86
2022/02/22 08:19:29;;;;;;;50.28;5.70;;;4.70;99.90;;;;;;6192652;23;20066;-84
2022/02/22 08:21:56;;;;;;;47.50;4.78;;;4.70;99.90;;;;;;6162654;23;20053;-84
2022/02/22 08:24:23;;;;;;;42.75;5.30;;;5.10;99.90;;;;;;6188489;23;20065;-84
2022/02/22 08:26:54;;;;;;;37.55;4.82;;;4.90;99.90;;;;;;6187532;23;20017;-84
2022/02/22 08:29:23;;;;;;;34.22;4.40;;;5.70;99.90;;;;;;6189463;23;20445;-82
2022/02/22 08:31:50;;;;;;;38.05;5.15;;;5.60;99.90;;;;;;6163946;23;20158;-85
2022/02/22 08:34:16;;;;;;;46.17;5.10;;;5.00;99.90;;;;;;6187638;23;20027;-82
2022/02/22 08:36:42;;;;;;;44.25;4.75;;;5.10;99.90;;;;;;6161340;23;20024;-78
2022/02/22 08:39:07;;;;;;;40.05;4.97;;;5.80;99.90;;;;;;6163203;23;20092;-80
2022/02/22 08:41:33;;;;;;;42.38;4.60;;;5.20;99.90;;;;;;6163032;23;20024;-82
2022/02/22 08:44:02;;;;;;;40.85;4.90;;;5.30;99.90;;;;;;6163158;23;20020;-81
2022/02/22 08:46:45;;;;;;;33.60;4.85;;;6.00;99.90;;;;;;6187053;23;20473;-85
2022/02/22 08:49:26;;;;;;;39.75;4.80;;;5.80;99.90;;;;;;6187962;23;20021;-82
2022/02/22 08:51:55;;;;;;;42.63;4.70;;;6.60;99.90;;;;;;6188368;23;20024;-80
2022/02/22 08:54:21;;;;;;;39.13;4.18;;;5.00;99.90;;;;;;6163339;23;20028;-81
2022/02/22 08:56:46;;;;;;;51.65;5.03;;;6.50;99.90;;;;;;6187049;23;20016;-82
2022/02/22 08:59:12;;;;;;;36.30;4.40;;;5.70;99.90;;;;;;6187159;23;20107;-85
2022/02/22 09:01:37;;;;;;;29.33;4.30;;;5.70;99.90;;;;;;6186651;23;20013;-82
2022/02/22 09:04:03;;;;;;;34.70;4.47;;;6.60;99.90;;;;;;6187505;23;20008;-82
2022/02/22 09:06:29;;;;;;;38.47;5.03;;;6.00;99.90;;;;;;6161594;23;20066;-82
2022/02/22 09:08:55;;;;;;;43.40;4.63;;;6.10;99.90;;;;;;6187134;23;20023;-82
2022/02/22 09:11:20;;;;;;;34.20;4.38;;;6.00;99.90;;;;;;6162083;23;20019;-82
2022/02/22 09:13:46;;;;;;;34.25;4.68;;;6.30;99.90;;;;;;6187888;23;20414;-82
2022/02/22 09:16:13;;;;;;;35.25;5.22;;;6.20;99.90;;;;;;6187243;23;20020;-81
2022/02/22 09:18:38;;;;;;;31.75;4.32;;;6.30;99.90;;;;;;6186576;23;20448;-81
2022/02/22 09:21:04;;;;;;;38.53;4.55;;;6.40;99.90;;;;;;6162989;23;20023;-81
2022/02/22 09:23:30;;;;;;;38.95;5.15;;;6.40;99.90;;;;;;6163259;23;20012;-81
2022/02/22 09:25:56;;;;;;;30.73;3.75;;;6.40;99.90;;;;;;6161287;23;20032;-81
2022/02/22 09:28:22;;;;;;;28.17;3.63;;;6.50;99.90;;;;;;6186898;23;20025;-82
2022/02/22 09:30:47;;;;;;;34.55;4.43;;;7.00;99.90;;;;;;6187399;23;20409;-81
2022/02/22 09:33:13;;;;;;;32.03;4.82;;;6.50;99.90;;;;;;6162496;23;20052;-81
2022/02/22 09:35:39;;;;;;;38.58;4.18;;;6.40;99.90;;;;;;6214941;23;20024;-82
2022/02/22 09:38:05;;;;;;;31.00;3.72;;;6.60;99.90;;;;;;6189219;23;20020;-82
2022/02/22 09:40:31;;;;;;;28.65;4.45;;;6.60;99.90;;;;;;6186860;23;20008;-82
2022/02/22 09:42:57;;;;;;;26.00;3.85;;;6.60;99.90;;;;;;6186766;23;20070;-82
2022/02/22 09:45:25;;;;;;;32.75;4.45;;;6.60;99.90;;;;;;6162470;23;20360;-82
2022/02/22 09:47:55;;;;;;;27.85;3.95;;;6.70;99.90;;;;;;6162089;23;20035;-82
2022/02/22 09:50:21;;;;;;;26.77;4.35;;;6.60;99.90;;;;;;6186884;23;20020;-82
2022/02/22 09:52:47;;;;;;;31.95;4.20;;;6.70;99.90;;;;;;6187196;23;20489;-82
2022/02/22 09:55:13;;;;;;;24.95;4.20;;;6.70;99.90;;;;;;6216786;23;20088;-82
2022/02/22 09:57:39;;;;;;;31.85;4.55;;;6.70;99.90;;;;;;6161339;23;20410;-82
2022/02/22 10:00:26;;;;;;;23.98;4.40;;;6.70;99.90;;;;;;6187235;23;20009;-81
2022/02/22 10:02:52;;;;;;;36.55;5.10;;;6.80;99.90;;;;;;6186058;23;20067;-82
2022/02/22 10:05:20;;;;;;;27.60;4.13;;;6.80;99.90;;;;;;6162475;23;20385;-82
2022/02/22 10:07:58;;;;;;;27.20;4.45;;;6.70;99.90;;;;;;6187288;23;20024;-82
2022/02/22 10:10:43;;;;;;;36.97;5.05;;;6.90;99.90;;;;;;6186272;23;20183;-81
2022/02/22 10:13:16;;;;;;;37.33;5.22;;;6.90;99.90;;;;;;6161865;23;20099;-81
2022/02/22 10:15:45;;;;;;;29.35;5.40;;;6.90;99.90;;;;;;6185786;23;20020;-83
2022/02/22 10:18:15;;;;;;;30.27;5.45;;;7.20;99.90;;;;;;6160252;23;20108;-83
2022/02/22 10:20:42;;;;;;;37.90;5.22;;;7.20;99.90;;;;;;6185704;23;20020;-81
2022/02/22 10:23:08;;;;;;;33.58;5.43;;;7.10;99.90;;;;;;6185903;23;20089;-81
2022/02/22 10:25:35;;;;;;;39.58;5.85;;;7.10;99.90;;;;;;6211965;23;20035;-81
2022/02/22 10:28:04;;;;;;;30.85;6.72;;;7.20;99.90;;;;;;6160105;23;20017;-82
2022/02/22 10:30:45;;;;;;;31.58;6.28;;;7.30;99.90;;;;;;6159486;23;20074;-81
2022/02/22 10:33:19;;;;;;;36.67;6.55;;;7.20;99.90;;;;;;6157031;23;20413;-82
2022/02/22 10:35:48;;;;;;;29.08;5.88;;;7.20;99.90;;;;;;6185840;23;20445;-82
2022/02/22 10:38:17;;;;;;;36.10;7.32;;;7.20;99.90;;;;;;6185457;23;20016;-81
2022/02/22 10:40:58;;;;;;;49.80;6.88;;;8.10;99.90;;;;;;6160380;23;20062;-81
2022/02/22 10:43:32;;;;;;;45.47;7.47;;;7.20;99.90;;;;;;6186990;23;20012;-82
2022/02/22 10:46:05;;;;;;;42.75;7.63;;;7.10;99.90;;;;;;6185159;23;20040;-80
2022/02/22 10:48:42;;;;;;;42.60;7.65;;;7.30;99.90;;;;;;6186211;23;20013;-83
2022/02/22 10:51:14;;;;;;;46.38;7.43;;;7.10;99.90;;;;;;6184632;23;20047;-83
2022/02/22 10:53:43;;;;;;;45.50;6.65;;;7.40;99.90;;;;;;6160620;23;20420;-82
2022/02/22 10:56:18;;;;;;;36.05;6.18;;;8.20;99.90;;;;;;6159169;23;20039;-81
2022/02/22 10:58:44;;;;;;;;;;;7.40;99.90;;;;;;6186096;23;20025;-83
2022/02/22 11:01:13;;;;;;;41.60;6.70;;;7.80;99.90;;;;;;6160249;23;19916;-80
2022/02/22 11:03:43;;;;;;;34.90;6.13;;;8.00;99.90;;;;;;6184132;23;20052;-80
2022/02/22 11:06:10;;;;;;;38.17;6.13;;;8.30;99.90;;;;;;6184376;23;20016;-82
2022/02/22 11:08:39;;;;;;;37.42;5.88;;;7.90;99.90;;;;;;6160111;23;20025;-82
2022/02/22 11:11:09;;;;;;;38.50;7.03;;;7.50;99.90;;;;;;6184243;23;20017;-82
2022/02/22 11:13:36;;;;;;;45.42;6.85;;;8.20;99.90;;;;;;6161487;23;20336;-82
2022/02/22 11:16:14;;;;;;;48.20;7.03;;;7.40;99.90;;;;;;6212798;23;20013;-83
2022/02/22 11:18:51;;;;;;;42.78;6.30;;;7.40;99.90;;;;;;6160912;23;20017;-82
2022/02/22 11:21:21;;;;;;;44.65;6.32;;;7.50;99.90;;;;;;6188406;23;20020;-82
2022/02/22 11:23:47;;;;;;;37.95;5.97;;;7.50;99.90;;;;;;6187820;23;20016;-82
2022/02/22 11:26:20;;;;;;;33.22;5.40;;;7.50;99.90;;;;;;6185597;23;20309;-81
2022/02/22 11:28:52;;;;;;;35.33;6.05;;;7.50;99.90;;;;;;6137062;23;20023;-79
2022/02/22 11:31:21;;;;;;;46.47;6.05;;;7.60;99.90;;;;;;6162785;23;20147;-79
2022/02/22 11:33:50;;;;;;;39.83;5.97;;;7.60;99.90;;;;;;6186959;23;20013;-80
2022/02/22 11:36:39;;;;;;;38.17;5.88;;;7.50;99.90;;;;;;6186652;23;20100;-81
2022/02/22 11:39:07;;;;;;;36.60;5.53;;;7.70;99.90;;;;;;6213377;23;20016;-83
2022/02/22 11:41:47;;;;;;;28.42;4.75;;;7.60;99.90;;;;;;6162068;23;20104;-82
2022/02/22 11:44:17;;;;;;;32.63;6.30;;;7.70;99.90;;;;;;6162951;23;20015;-82
2022/02/22 11:46:50;;;;;;;41.63;6.57;;;7.70;99.90;;;;;;6163313;23;20095;-82
2022/02/22 11:49:29;;;;;;;35.70;5.97;;;7.60;99.90;;;;;;6188610;23;20108;-81
2022/02/22 11:52:08;;;;;;;40.08;6.60;;;7.60;99.90;;;;;;6188207;23;20039;-81
2022/02/22 11:54:34;;;;;;;38.78;6.25;;;7.50;99.90;;;;;;6188977;23;20150;-82
2022/02/22 11:57:11;;;;;;;34.95;5.95;;;7.60;99.90;;;;;;6215166;23;20111;-81
2022/02/22 11:59:46;;;;;;;26.70;5.50;;;7.40;99.90;;;;;;6164052;23;20008;-82
2022/02/22 12:02:12;;;;;;;;;;;7.80;99.90;;;;;;6188488;23;20113;-81
2022/02/22 12:04:43;;;;;;;36.10;8.15;;;7.40;99.90;;;;;;6213211;23;19912;-83
2022/02/22 12:07:09;;;;;;;44.72;9.23;;;7.30;99.90;;;;;;6162383;23;20017;-84
2022/02/22 12:10:07;;;;;;;34.95;8.25;;;8.00;99.90;;;;;;6187058;23;20027;-84
2022/02/22 12:12:39;;;;;;;30.48;7.53;;;7.10;99.90;;;;;;6187480;23;20409;-86
2022/02/22 12:15:06;;;;;;;45.70;8.23;;;7.00;99.90;;;;;;6163450;23;20028;-84
2022/02/22 12:17:33;;;;;;;36.85;7.38;;;7.00;99.90;;;;;;6186847;23;20063;-83
2022/02/22 12:20:01;;;;;;;41.30;7.97;;;7.00;99.90;;;;;;6188578;23;20379;-82
2022/02/22 12:22:26;;;;;;;32.53;8.57;;;7.90;99.90;;;;;;6187351;23;20039;-83
2022/02/22 12:25:03;;;;;;;33.47;8.25;;;7.30;99.90;;;;;;6162559;23;20024;-83
2022/02/22 12:27:31;;;;;;;47.85;10.75;;;7.70;99.90;;;;;;6161235;23;20020;-83
2022/02/22 12:29:58;;;;;;;56.35;18.73;;;7.00;99.90;;;;;;6161785;23;20024;-82
2022/02/22 12:32:25;;;;;;;47.40;13.27;;;7.60;99.90;;;;;;6161350;23;20079;-84
2022/02/22 12:34:53;;;;;;;50.50;13.85;;;7.10;99.90;;;;;;6186867;23;20099;-83
2022/02/22 12:37:19;;;;;;;44.20;10.57;;;7.10;99.90;;;;;;6187523;23;20109;-83
2022/02/22 12:39:45;;;;;;;38.95;9.10;;;7.30;99.90;;;;;;6213309;23;20016;-84
2022/02/22 12:42:12;;;;;;;44.05;9.35;;;6.90;99.90;;;;;;6185997;23;20368;-83
2022/02/22 12:44:39;;;;;;;38.63;10.02;;;7.70;99.90;;;;;;6213701;23;20020;-82
2022/02/22 12:47:05;;;;;;;40.63;10.63;;;8.00;99.90;;;;;;6186477;23;20009;-82
2022/02/22 12:49:31;;;;;;;42.13;11.38;;;7.20;99.90;;;;;;6186790;23;20017;-84
2022/02/22 12:52:06;;;;;;;55.58;12.45;;;8.20;99.90;;;;;;6186084;23;20016;-83
2022/02/22 12:54:34;;;;;;;40.72;10.52;;;7.30;99.90;;;;;;6162043;23;20028;-82
2022/02/22 12:57:02;;;;;;;41.75;10.57;;;7.30;99.90;;;;;;6161753;23;20123;-83